createdAt,value
2024-03-16T00:01:01.892Z,11.26
2024-03-16T00:03:29.738Z,11.32
2024-03-16T00:05:57.455Z,11.39
2024-03-16T00:08:24.711Z,11.41
2024-03-16T00:10:51.907Z,11.41
2024-03-16T00:13:18.486Z,11.49
2024-03-16T00:15:49.432Z,11.51
2024-03-16T00:18:16.184Z,11.53
2024-03-16T00:20:43.077Z,11.57
2024-03-16T00:23:09.461Z,11.58
2024-03-16T00:25:35.822Z,11.57
2024-03-16T00:28:02.313Z,11.57
2024-03-16T00:30:28.762Z,11.53
2024-03-16T00:32:55.642Z,11.54
2024-03-16T00:35:22.250Z,11.56
2024-03-16T00:37:49.122Z,11.60
2024-03-16T00:40:16.908Z,11.54
2024-03-16T00:42:43.570Z,11.50
2024-03-16T00:45:09.986Z,11.55
2024-03-16T00:47:36.520Z,11.53
2024-03-16T00:50:03.130Z,11.48
2024-03-16T00:52:29.507Z,11.46
2024-03-16T00:54:57.556Z,11.51
2024-03-16T00:57:24.864Z,11.52
2024-03-16T00:59:51.283Z,11.47
2024-03-16T01:02:18.832Z,11.49
2024-03-16T01:04:45.204Z,11.48
2024-03-16T01:07:11.615Z,11.50
2024-03-16T01:09:38.122Z,11.50
2024-03-16T01:12:04.904Z,11.49
2024-03-16T01:14:31.275Z,11.55
2024-03-16T01:16:57.684Z,11.57
2024-03-16T01:19:24.110Z,11.50
2024-03-16T01:21:50.542Z,11.46
2024-03-16T01:24:17.028Z,11.47
2024-03-16T01:26:43.691Z,11.49
2024-03-16T01:29:15.050Z,11.41
2024-03-16T01:31:41.498Z,11.42
2024-03-16T01:34:08.090Z,11.37
2024-03-16T01:36:34.688Z,11.46
2024-03-16T01:39:01.054Z,11.46
2024-03-16T01:41:27.408Z,11.41
2024-03-16T01:43:54.080Z,11.41
2024-03-16T01:46:20.513Z,11.39
2024-03-16T01:48:50.255Z,11.40
2024-03-16T01:51:16.726Z,11.42
2024-03-16T01:53:43.257Z,11.39
2024-03-16T01:56:10.069Z,11.41
2024-03-16T01:58:39.751Z,11.36
2024-03-16T02:01:06.238Z,11.39
2024-03-16T02:03:32.772Z,11.34
2024-03-16T02:05:59.258Z,11.28
2024-03-16T02:08:27.239Z,11.22
2024-03-16T02:10:53.637Z,11.14
2024-03-16T02:13:20.149Z,11.14
2024-03-16T02:15:46.606Z,11.14
2024-03-16T02:18:13.050Z,11.18
2024-03-16T02:20:39.485Z,11.22
2024-03-16T02:23:05.834Z,11.21
2024-03-16T02:25:32.206Z,11.16
2024-03-16T02:27:58.652Z,11.13
2024-03-16T02:30:25.322Z,11.19
2024-03-16T02:32:51.740Z,11.23
2024-03-16T02:35:19.043Z,11.19
2024-03-16T02:37:45.461Z,11.15
2024-03-16T02:40:12.995Z,11.13
2024-03-16T02:42:42.115Z,11.10
2024-03-16T02:45:08.807Z,11.11
2024-03-16T02:47:35.286Z,11.10
2024-03-16T02:50:04.897Z,11.10
2024-03-16T02:52:34.726Z,11.09
2024-03-16T02:55:01.197Z,11.15
2024-03-16T02:57:27.641Z,11.16
2024-03-16T02:59:54.068Z,11.21
2024-03-16T03:02:24.428Z,11.20
2024-03-16T03:04:51.813Z,11.22
2024-03-16T03:07:18.754Z,11.18
2024-03-16T03:09:45.690Z,11.14
2024-03-16T03:12:12.055Z,11.15
2024-03-16T03:14:38.409Z,11.08
2024-03-16T03:17:04.742Z,11.04
2024-03-16T03:19:31.547Z,11.05
2024-03-16T03:21:58.068Z,11.06
2024-03-16T03:24:24.415Z,11.12
2024-03-16T03:26:50.985Z,11.14
2024-03-16T03:29:17.463Z,11.16
2024-03-16T03:31:43.851Z,11.18
2024-03-16T03:34:10.331Z,11.21
2024-03-16T03:36:37.083Z,11.23
2024-03-16T03:39:04.026Z,11.25
2024-03-16T03:41:30.458Z,11.28
2024-03-16T03:44:01.232Z,11.28
2024-03-16T03:46:41.275Z,11.32
2024-03-16T03:49:16.077Z,11.34
2024-03-16T03:51:42.644Z,11.38
2024-03-16T03:54:08.991Z,11.43
2024-03-16T03:56:35.682Z,11.42
2024-03-16T03:59:03.242Z,11.44
2024-03-16T04:01:29.870Z,11.49
2024-03-16T04:03:57.198Z,11.50
2024-03-16T04:06:25.381Z,11.45
2024-03-16T04:08:51.749Z,11.50
2024-03-16T04:11:18.116Z,11.49
2024-03-16T04:13:44.472Z,11.55
2024-03-16T04:16:13.269Z,11.55
2024-03-16T04:18:40.227Z,11.55
2024-03-16T04:21:07.119Z,11.56
2024-03-16T04:23:33.993Z,11.53
2024-03-16T04:26:00.421Z,11.58
2024-03-16T04:28:26.804Z,11.56
2024-03-16T04:30:53.297Z,11.63
2024-03-16T04:33:19.728Z,11.65
2024-03-16T04:35:49.105Z,11.66
2024-03-16T04:38:15.436Z,11.60
2024-03-16T04:40:43.817Z,11.65
2024-03-16T04:43:10.259Z,11.64
2024-03-16T04:45:36.666Z,11.65
2024-03-16T04:48:03.332Z,11.61
2024-03-16T04:50:29.824Z,11.62
2024-03-16T04:52:56.228Z,11.62
2024-03-16T04:55:22.673Z,11.63
2024-03-16T04:57:49.052Z,11.64
2024-03-16T05:00:15.463Z,11.65
2024-03-16T05:02:42.636Z,11.68
2024-03-16T05:05:09.074Z,11.70
2024-03-16T05:07:36.146Z,11.71
2024-03-16T05:10:05.084Z,11.76
2024-03-16T05:12:31.592Z,11.76
2024-03-16T05:14:57.963Z,11.80
2024-03-16T05:17:24.347Z,11.83
2024-03-16T05:19:53.107Z,11.81
2024-03-16T05:22:19.598Z,11.80
2024-03-16T05:24:46.199Z,11.77
2024-03-16T05:27:13.627Z,11.74
2024-03-16T05:29:39.975Z,11.70
2024-03-16T05:32:06.469Z,11.67
2024-03-16T05:34:32.832Z,11.60
2024-03-16T05:36:59.265Z,11.60
2024-03-16T05:39:25.777Z,11.62
2024-03-16T05:41:52.194Z,11.61
2024-03-16T05:44:18.549Z,11.61
2024-03-16T05:46:44.889Z,11.61
2024-03-16T05:49:11.360Z,11.56
2024-03-16T05:51:37.857Z,11.55
2024-03-16T05:54:05.308Z,11.55
2024-03-16T05:56:33.428Z,11.54
2024-03-16T05:58:59.809Z,11.54
2024-03-16T06:01:26.298Z,11.58
2024-03-16T06:03:52.925Z,11.61
2024-03-16T06:06:19.311Z,11.62
2024-03-16T06:08:45.645Z,11.65
2024-03-16T06:11:12.013Z,11.70
2024-03-16T06:13:38.377Z,11.69
2024-03-16T06:16:05.025Z,11.71
2024-03-16T06:18:31.705Z,11.70
2024-03-16T06:20:58.109Z,11.71
2024-03-16T06:23:24.473Z,11.77
2024-03-16T06:25:52.016Z,11.75
2024-03-16T06:28:20.387Z,11.75
2024-03-16T06:30:54.330Z,11.77
2024-03-16T06:33:34.456Z,11.76
2024-03-16T06:36:01.237Z,11.71
2024-03-16T06:38:27.847Z,11.67
2024-03-16T06:40:54.713Z,11.69
2024-03-16T06:43:21.096Z,11.73
2024-03-16T06:45:47.506Z,11.77
2024-03-16T06:48:14.838Z,11.80
2024-03-16T06:50:41.229Z,11.75
2024-03-16T06:53:07.724Z,11.51
2024-03-16T06:55:34.542Z,11.28
2024-03-16T06:58:01.161Z,11.11
2024-03-16T07:00:27.958Z,11.00
2024-03-16T07:02:54.394Z,10.90
2024-03-16T07:05:20.761Z,10.76
2024-03-16T07:07:47.093Z,10.65
2024-03-16T07:10:13.656Z,10.62
2024-03-16T07:12:40.164Z,10.57
2024-03-16T07:15:08.953Z,10.50
2024-03-16T07:17:35.322Z,10.48
2024-03-16T07:20:01.682Z,10.49
2024-03-16T07:22:28.374Z,10.49
2024-03-16T07:24:55.673Z,10.55
2024-03-16T07:27:22.072Z,10.61
2024-03-16T07:29:48.432Z,10.66
2024-03-16T07:32:14.817Z,10.70
2024-03-16T07:34:41.165Z,10.69
2024-03-16T07:37:07.675Z,10.69
2024-03-16T07:39:34.099Z,10.67
2024-03-16T07:42:00.682Z,10.63
2024-03-16T07:44:27.072Z,10.59
2024-03-16T07:46:53.424Z,10.55
2024-03-16T07:49:21.826Z,10.54
2024-03-16T07:51:48.357Z,10.56
2024-03-16T07:54:16.314Z,10.58
2024-03-16T07:56:42.687Z,10.63
2024-03-16T07:59:10.764Z,10.72
2024-03-16T08:01:38.316Z,10.80
2024-03-16T08:04:05.406Z,10.83
2024-03-16T08:06:32.444Z,10.81
2024-03-16T08:08:58.823Z,10.80
2024-03-16T08:11:25.576Z,10.80
2024-03-16T08:13:52.819Z,10.75
2024-03-16T08:16:19.426Z,10.70
2024-03-16T08:18:47.049Z,10.71
2024-03-16T08:21:15.900Z,10.76
2024-03-16T08:23:42.395Z,10.71
2024-03-16T08:26:10.340Z,10.67
2024-03-16T08:28:37.083Z,10.67
2024-03-16T08:31:04.374Z,10.75
2024-03-16T08:33:30.993Z,10.89
2024-03-16T08:35:57.415Z,10.89
2024-03-16T08:38:25.201Z,10.93
2024-03-16T08:40:51.569Z,11.02
2024-03-16T08:43:17.952Z,11.01
2024-03-16T08:45:44.523Z,10.94
2024-03-16T08:48:11.676Z,10.95
2024-03-16T08:50:39.029Z,10.91
2024-03-16T08:53:05.414Z,10.85
2024-03-16T08:55:31.916Z,10.81
2024-03-16T08:57:58.378Z,10.89
2024-03-16T09:00:26.124Z,11.04
2024-03-16T09:02:53.258Z,11.25
2024-03-16T09:05:20.038Z,11.35
2024-03-16T09:07:46.439Z,11.26
2024-03-16T09:10:13.019Z,11.25
2024-03-16T09:12:39.997Z,11.28
2024-03-16T09:15:07.180Z,11.19
2024-03-16T09:17:34.274Z,11.11
2024-03-16T09:20:08.265Z,10.95
2024-03-16T09:22:38.267Z,10.98
2024-03-16T09:25:09.761Z,11.07
2024-03-16T09:27:36.980Z,11.03
2024-03-16T09:30:06.750Z,11.06
2024-03-16T09:32:35.053Z,11.05
2024-03-16T09:35:01.802Z,11.10
2024-03-16T09:37:28.184Z,11.17
2024-03-16T09:39:54.630Z,11.36
2024-03-16T09:42:23.046Z,11.47
